createdAt,value
2022-08-26T00:13:49.419Z,28.41
2022-08-26T00:28:51.599Z,28.66
2022-08-26T00:43:55.102Z,28.66
2022-08-26T00:59:01.287Z,28.65
2022-08-26T01:14:06.742Z,28.78
2022-08-26T01:29:17.333Z,28.97
2022-08-26T01:44:22.589Z,29.16
2022-08-26T01:59:25.048Z,29.67
2022-08-26T02:14:31.363Z,30.01
2022-08-26T02:29:40.635Z,29.95
2022-08-26T02:44:42.536Z,30.39
2022-08-26T02:59:46.064Z,30.30
2022-08-26T03:14:48.530Z,30.45
2022-08-26T03:30:08.717Z,31.14
2022-08-26T03:45:15.512Z,31.38
2022-08-26T04:00:18.736Z,32.15
2022-08-26T04:15:21.977Z,32.24
2022-08-26T04:30:23.875Z,32.46
2022-08-26T04:45:27.367Z,32.42
2022-08-26T05:00:29.412Z,32.73
2022-08-26T05:15:31.349Z,32.70
2022-08-26T05:30:33.368Z,32.97
2022-08-26T05:45:45.898Z,33.32
2022-08-26T06:01:02.176Z,33.55
2022-08-26T06:16:07.897Z,33.42
2022-08-26T06:31:10.190Z,32.98
2022-08-26T06:46:15.071Z,32.68
2022-08-26T07:01:29.964Z,31.94
2022-08-26T07:16:34.235Z,30.03
2022-08-26T07:31:37.935Z,29.80
2022-08-26T07:46:52.179Z,29.10
2022-08-26T08:01:54.716Z,29.45
2022-08-26T08:16:58.203Z,28.89
2022-08-26T08:32:00.216Z,28.88
2022-08-26T08:47:13.359Z,29.50
2022-08-26T09:02:39.618Z,28.55
2022-08-26T09:18:01.598Z,28.00
2022-08-26T09:33:16.642Z,27.26
2022-08-26T09:48:36.239Z,27.75
2022-08-26T10:03:39.985Z,28.01
2022-08-26T10:19:02.933Z,28.13
2022-08-26T10:34:08.597Z,28.66
2022-08-26T10:49:14.075Z,28.37
2022-08-26T11:04:35.166Z,29.04
2022-08-26T11:19:59.638Z,28.83
2022-08-26T11:35:08.029Z,28.60
2022-08-26T11:50:23.662Z,26.56
2022-08-26T12:05:36.957Z,26.23
2022-08-26T12:20:48.764Z,26.21
2022-08-26T12:35:56.299Z,25.42
2022-08-26T12:50:59.502Z,26.19
2022-08-26T13:06:31.722Z,24.92
2022-08-26T13:21:42.113Z,25.12
2022-08-26T13:36:44.994Z,26.15
2022-08-26T13:51:46.960Z,26.71
2022-08-26T14:06:49.127Z,26.85
2022-08-26T14:21:51.090Z,27.87
2022-08-26T14:36:53.003Z,28.54
2022-08-26T14:51:56.581Z,29.54
2022-08-26T15:06:59.925Z,29.52
2022-08-26T15:22:01.915Z,30.30
2022-08-26T15:37:04.597Z,30.93
2022-08-26T15:52:07.148Z,31.56
2022-08-26T16:07:09.210Z,31.86
2022-08-26T16:22:13.012Z,31.54
2022-08-26T16:37:15.029Z,34.72
2022-08-26T16:52:17.001Z,38.46
2022-08-26T17:07:19.069Z,40.60
2022-08-26T17:22:20.847Z,36.81
2022-08-26T17:37:22.760Z,36.59
2022-08-26T17:52:24.640Z,33.71
2022-08-26T18:07:26.644Z,33.61
2022-08-26T18:22:28.712Z,33.13
2022-08-26T18:37:31.733Z,31.98
2022-08-26T18:52:33.769Z,31.35
2022-08-26T19:07:39.614Z,30.98
2022-08-26T19:22:41.612Z,30.70
2022-08-26T19:37:43.319Z,29.58
2022-08-26T19:52:45.249Z,29.48
2022-08-26T20:07:47.547Z,28.79
2022-08-26T20:22:49.735Z,28.29
2022-08-26T20:37:51.642Z,27.58
2022-08-26T20:52:56.227Z,26.07
2022-08-26T21:07:58.295Z,25.98
2022-08-26T21:23:00.285Z,25.67
2022-08-26T21:38:02.186Z,25.58
2022-08-26T21:53:04.334Z,25.09
2022-08-26T22:08:06.230Z,25.30
2022-08-26T22:23:08.837Z,25.37
2022-08-26T22:38:11.236Z,26.06
2022-08-26T22:53:14.840Z,26.09
2022-08-26T23:08:17.310Z,26.47
2022-08-26T23:23:19.248Z,26.73
2022-08-26T23:38:21.180Z,26.96
2022-08-26T23:53:23.149Z,26.94
